createdAt,value
2022-11-17T00:01:10.156Z,1.10
2022-11-17T00:06:15.147Z,1.70
2022-11-17T00:11:18.272Z,2.15
2022-11-17T00:16:22.506Z,1.50
2022-11-17T00:21:28.977Z,3.03
2022-11-17T00:26:33.708Z,2.50
2022-11-17T00:36:58.642Z,1.00
2022-11-17T00:47:04.878Z,2.35
2022-11-17T00:52:10.648Z,1.73
2022-11-17T00:57:13.815Z,1.17
2022-11-17T01:02:16.969Z,0.95
2022-11-17T01:07:22.971Z,2.08
2022-11-17T01:12:26.185Z,3.95
2022-11-17T01:17:29.353Z,3.45
2022-11-17T01:22:33.918Z,1.95
2022-11-17T01:27:37.105Z,4.10
2022-11-17T01:32:40.286Z,3.50
2022-11-17T01:37:44.943Z,4.97
2022-11-17T01:47:53.877Z,2.55
2022-11-17T01:53:01.646Z,1.52
2022-11-17T01:58:09.744Z,1.50
2022-11-17T02:03:13.605Z,1.73
2022-11-17T02:08:20.861Z,0.93
2022-11-17T02:13:24.852Z,1.77
2022-11-17T02:18:28.230Z,1.03
2022-11-17T02:24:08.956Z,1.25
2022-11-17T02:29:20.756Z,0.85
2022-11-17T02:34:35.991Z,2.55
2022-11-17T02:39:45.304Z,0.43
2022-11-17T02:44:58.036Z,1.10
2022-11-17T02:50:05.134Z,1.15
2022-11-17T02:55:10.565Z,1.27
2022-11-17T03:00:17.894Z,3.80
2022-11-17T03:05:28.381Z,1.08
2022-11-17T03:10:45.870Z,2.58
2022-11-17T03:15:56.628Z,2.20
2022-11-17T03:21:11.873Z,1.05
2022-11-17T03:26:22.265Z,0.88
2022-11-17T03:31:29.158Z,1.13
2022-11-17T03:36:37.986Z,3.22
2022-11-17T03:41:45.966Z,2.25
2022-11-17T03:46:54.443Z,4.22
2022-11-17T03:51:57.913Z,1.60
2022-11-17T03:57:07.648Z,2.58
2022-11-17T04:02:15.360Z,1.88
2022-11-17T04:07:18.618Z,2.28
2022-11-17T04:12:39.328Z,2.05
2022-11-17T04:17:43.880Z,2.13
2022-11-17T04:23:07.079Z,0.32
2022-11-17T04:28:27.615Z,1.45
2022-11-17T04:33:32.364Z,1.92
2022-11-17T04:38:35.922Z,1.52
2022-11-17T04:43:39.216Z,1.33
2022-11-17T04:48:43.967Z,1.75
2022-11-17T04:53:47.603Z,1.30
2022-11-17T04:58:51.141Z,2.75
2022-11-17T05:03:57.439Z,2.20
2022-11-17T05:09:02.888Z,2.92
2022-11-17T05:14:06.060Z,5.05
2022-11-17T05:19:12.476Z,3.88
2022-11-17T05:24:16.162Z,3.63
2022-11-17T05:29:21.397Z,1.67
2022-11-17T05:34:26.058Z,2.58
2022-11-17T05:44:32.249Z,3.90
2022-11-17T05:49:36.899Z,6.15
2022-11-17T05:54:40.140Z,6.03
2022-11-17T05:59:47.445Z,7.15
2022-11-17T06:04:53.064Z,3.72
2022-11-17T06:09:56.473Z,5.75
2022-11-17T06:14:59.760Z,6.18
2022-11-17T06:20:08.881Z,4.70
2022-11-17T06:25:12.623Z,9.30
2022-11-17T06:30:15.994Z,7.90
2022-11-17T06:35:21.085Z,6.47
2022-11-17T06:40:24.374Z,7.35
2022-11-17T06:45:27.896Z,12.27
2022-11-17T06:50:32.876Z,11.20
2022-11-17T06:55:36.996Z,13.55
2022-11-17T07:00:40.416Z,10.73
2022-11-17T07:05:45.219Z,12.05
2022-11-17T07:16:04.739Z,15.25
2022-11-17T07:21:11.140Z,17.67
2022-11-17T07:26:14.643Z,16.50
2022-11-17T07:31:17.938Z,22.15
2022-11-17T07:36:22.641Z,25.27
2022-11-17T07:46:28.831Z,17.90
2022-11-17T07:51:33.430Z,13.82
2022-11-17T07:56:36.679Z,19.08
2022-11-17T08:01:40.106Z,19.13
2022-11-17T08:06:45.437Z,20.40
2022-11-17T08:11:48.896Z,19.52
2022-11-17T08:16:52.176Z,20.33
2022-11-17T08:21:56.805Z,23.75
2022-11-17T08:27:00.027Z,18.65
2022-11-17T08:32:03.189Z,16.17
2022-11-17T08:37:07.769Z,20.95
2022-11-17T08:42:10.939Z,22.90
2022-11-17T08:47:14.155Z,22.75
2022-11-17T08:52:19.532Z,19.52
2022-11-17T08:57:23.019Z,22.83
2022-11-17T09:02:26.350Z,18.83
2022-11-17T09:07:35.045Z,19.77
2022-11-17T09:12:38.507Z,15.20
2022-11-17T09:17:43.160Z,20.67
2022-11-17T09:27:51.330Z,23.60
2022-11-17T09:32:54.481Z,17.33
2022-11-17T09:38:02.158Z,19.50
2022-11-17T09:43:09.718Z,23.05
2022-11-17T09:48:40.375Z,22.55
2022-11-17T09:53:47.359Z,23.48
2022-11-17T09:58:56.399Z,17.25
2022-11-17T10:04:01.651Z,22.85
2022-11-17T10:09:13.014Z,27.52
2022-11-17T10:14:18.211Z,21.05
2022-11-17T10:19:23.754Z,27.30
2022-11-17T10:24:41.687Z,27.50
2022-11-17T10:29:58.035Z,27.80
2022-11-17T10:35:15.937Z,25.15
2022-11-17T10:40:25.690Z,22.42
2022-11-17T10:45:30.033Z,24.48
2022-11-17T10:50:33.368Z,24.23
2022-11-17T10:55:39.179Z,24.08
2022-11-17T11:00:44.634Z,17.20
2022-11-17T11:05:57.834Z,17.10
2022-11-17T11:11:04.716Z,25.75
2022-11-17T11:16:10.673Z,22.70
2022-11-17T11:21:22.159Z,23.90
2022-11-17T11:26:39.270Z,20.33
2022-11-17T11:31:53.027Z,22.10
2022-11-17T11:37:01.633Z,17.85
2022-11-17T11:42:32.322Z,16.98
2022-11-17T11:47:55.325Z,13.05
2022-11-17T11:53:05.182Z,13.65
2022-11-17T11:58:16.704Z,16.10
2022-11-17T12:03:26.593Z,13.00
2022-11-17T12:08:39.787Z,15.32
2022-11-17T12:13:49.907Z,16.90
2022-11-17T12:18:57.210Z,15.43
2022-11-17T12:24:20.018Z,14.50
2022-11-17T12:29:48.665Z,10.25
2022-11-17T12:35:25.487Z,11.70
2022-11-17T12:40:54.068Z,15.80
2022-11-17T12:46:20.647Z,15.05
2022-11-17T12:51:31.931Z,14.05
2022-11-17T12:56:52.431Z,19.02
2022-11-17T13:02:05.867Z,13.52
2022-11-17T13:07:18.294Z,12.88
2022-11-17T13:12:26.503Z,10.98
2022-11-17T13:17:33.898Z,9.38
2022-11-17T13:22:41.803Z,13.43
2022-11-17T13:27:52.573Z,7.55
2022-11-17T13:33:03.252Z,6.65
2022-11-17T13:38:17.197Z,8.23
2022-11-17T13:43:23.003Z,7.10
2022-11-17T13:48:42.806Z,11.35
2022-11-17T13:53:48.916Z,8.60
2022-11-17T13:58:53.661Z,9.82
2022-11-17T14:09:26.742Z,12.18
2022-11-17T14:14:36.956Z,6.40
2022-11-17T14:19:42.365Z,8.90
2022-11-17T14:24:49.379Z,9.00
2022-11-17T14:29:53.545Z,10.90
2022-11-17T14:34:58.778Z,8.02
2022-11-17T14:40:06.013Z,8.82
2022-11-17T14:45:10.592Z,9.07
2022-11-17T14:50:15.356Z,4.15
2022-11-17T14:55:22.512Z,9.68
2022-11-17T15:00:26.666Z,7.15
2022-11-17T15:05:32.207Z,11.07
2022-11-17T15:10:37.010Z,6.72
2022-11-17T15:15:40.377Z,11.27
2022-11-17T15:20:46.676Z,10.77
2022-11-17T15:26:26.094Z,15.68
2022-11-17T15:31:33.312Z,7.15
2022-11-17T15:36:58.730Z,11.77
2022-11-17T15:42:04.167Z,16.27
2022-11-17T15:47:41.744Z,11.02
2022-11-17T15:53:04.017Z,11.50
2022-11-17T15:58:39.068Z,13.23
2022-11-17T16:03:49.490Z,8.82
2022-11-17T16:08:52.662Z,11.82
2022-11-17T16:13:56.267Z,12.50
2022-11-17T16:19:00.922Z,9.85
2022-11-17T16:29:08.940Z,10.80
2022-11-17T16:34:15.625Z,13.90
2022-11-17T16:39:20.056Z,8.32
2022-11-17T16:44:23.537Z,15.07
2022-11-17T16:49:30.158Z,11.00
2022-11-17T16:54:33.363Z,14.73
2022-11-17T16:59:36.707Z,16.15
2022-11-17T17:04:41.311Z,13.35
2022-11-17T17:09:44.575Z,11.05
2022-11-17T17:14:47.772Z,12.40
2022-11-17T17:19:52.519Z,14.55
2022-11-17T17:29:58.771Z,16.80
2022-11-17T17:35:03.526Z,9.75
2022-11-17T17:45:11.188Z,15.27
2022-11-17T17:50:15.919Z,12.30
2022-11-17T18:00:22.300Z,13.13
2022-11-17T18:05:27.336Z,14.30
2022-11-17T18:10:30.776Z,11.02
2022-11-17T18:15:33.901Z,17.08
2022-11-17T18:20:38.699Z,11.80
2022-11-17T18:30:44.800Z,14.45
2022-11-17T18:35:49.384Z,12.80
2022-11-17T18:40:55.521Z,12.93
2022-11-17T18:46:04.570Z,10.77
2022-11-17T18:51:19.533Z,14.63
2022-11-17T18:56:26.026Z,15.57
2022-11-17T19:01:31.673Z,17.08
2022-11-17T19:06:36.414Z,11.57
2022-11-17T19:11:39.580Z,11.95
2022-11-17T19:16:44.843Z,11.65
2022-11-17T19:21:49.870Z,15.52
2022-11-17T19:26:53.139Z,11.30
2022-11-17T19:31:56.333Z,15.02
2022-11-17T19:37:00.917Z,12.10
2022-11-17T19:42:04.125Z,14.77
2022-11-17T19:47:07.367Z,12.05
2022-11-17T19:52:12.015Z,13.55
2022-11-17T19:57:15.197Z,12.50
2022-11-17T20:02:18.475Z,8.07
2022-11-17T20:07:23.085Z,9.57
2022-11-17T20:12:26.381Z,9.43
2022-11-17T20:17:29.671Z,11.73
2022-11-17T20:22:34.545Z,11.05
2022-11-17T20:27:37.742Z,10.77
2022-11-17T20:32:40.981Z,8.43
2022-11-17T20:37:45.583Z,14.98
2022-11-17T20:42:48.818Z,11.07
2022-11-17T20:47:52.063Z,9.15
2022-11-17T20:52:56.742Z,10.38
2022-11-17T20:57:59.986Z,11.73
2022-11-17T21:03:03.595Z,10.27
2022-11-17T21:08:08.572Z,12.20
2022-11-17T21:13:11.862Z,10.20
2022-11-17T21:18:27.390Z,10.27
2022-11-17T21:23:32.875Z,13.80
2022-11-17T21:28:37.159Z,14.88
2022-11-17T21:33:40.924Z,8.38
2022-11-17T21:38:46.914Z,10.07
2022-11-17T21:43:52.232Z,9.02
2022-11-17T21:48:57.198Z,11.13
2022-11-17T21:54:03.779Z,12.95
2022-11-17T21:59:10.949Z,10.57
2022-11-17T22:04:15.954Z,9.45
2022-11-17T22:09:20.644Z,11.20
2022-11-17T22:14:23.977Z,16.55
2022-11-17T22:19:29.262Z,10.48
2022-11-17T22:24:33.865Z,11.60
2022-11-17T22:29:37.029Z,8.98
2022-11-17T22:34:40.245Z,10.27
2022-11-17T22:39:45.772Z,12.02
2022-11-17T22:44:48.947Z,10.02
2022-11-17T22:49:52.168Z,12.55
2022-11-17T22:54:56.781Z,5.57
2022-11-17T22:59:59.970Z,10.23
2022-11-17T23:05:03.183Z,10.18
2022-11-17T23:10:08.287Z,11.43
2022-11-17T23:15:11.773Z,11.05
2022-11-17T23:20:15.014Z,9.68
2022-11-17T23:25:19.601Z,10.00
2022-11-17T23:30:22.782Z,11.70
2022-11-17T23:35:26.634Z,12.35
2022-11-17T23:40:31.236Z,9.18
2022-11-17T23:45:34.438Z,7.43
2022-11-17T23:50:38.486Z,13.77
2022-11-17T23:55:43.088Z,13.90
